Terminal Aerodrome Forecast
Issued by NWS

Home | Current Version | Previous Version | Text Only | Print | Product List | Glossary On
Versions: 1 2 3 4 5 6 7 8 9 10 11 12 13 14 15 16 17 18 19 20 21 22
000
FTPA31 PHFO 191100
TAFOGG
TAF
PHOG 191121Z 1912/2012 VRB02KT P6SM FEW040
     FM192000 02010KT P6SM FEW025 SCT050
     FM200600 03004KT P6SM FEW040
      AMD LTD TO WX VIS AND WIND TIL 191600=

USA.gov is the U.S. government's official web portal to all federal, state and local government web resources and services.